Aeroporto :
LOGIN :

Iscrizione | Disclaimer

   EN    FR    IT 

 










Sommario :    VFR   VFR Marginale   IFR   IFR Intensivo   IFR Molto Intensivo
Visibilità : 
Base nubi : 
>= 8 km
>= 3000ft
5 / 8 km
1000 / 3000 ft
1500m / 5 km
500 / 1000 ft
800 / 1500m
200 / 500 ft
< 800m
< 200 ft
Simboli :   Temporali  Nebbia  Neve Forte  Precipitazioni Forti  Vento > 20 kt
SIGMETs :   Varie  Temporali  Ghiacco  Turbolenza  Onda orograficha  Ceneri Vulcaniche







- Altitudine del aeroporto : 42 ft
- Codice IATA : KGD


UMKK - Khrabrava - Kaliningrad

ULTIMO METAR :
  • 250100Z 23004MPS CAVOK 01/M00 Q1012 R24/60D NOSIG RMK QFE758/1011

METARs OBSOLETI :
  • 250030Z 24004MPS CAVOK 02/M00 Q1013 R24/CLRD60 NOSIG RMK QFE758/1011
  • 250000Z 23004MPS 9999 FEW020 01/M00 Q1013 R24/60D NOSIG RMK QFE759/1012
  • 242330Z 24005MPS 9999 FEW020 01/M00 Q1014 R24/CLRD60 NOSIG RMK QFE759/1012
  • 242300Z 24004MPS 9999 FEW020 01/00 Q1014 R24/CLRD60 NOSIG RMK QFE759/1013
  • 242230Z 24004MPS 9999 FEW020 01/M00 Q1014 R24/60D NOSIG RMK QFE760/1013

TAF TAF UMKK
Valido dal 25 a 00 ore il 26 a 00 ore UTC


242257Z 2500/2524 24003G08MPS 9999 BKN011
TEMPO 2500/2506 22005MPS 3100 BR FEW005
BECMG 2506/2508 27005G10MPS
TEMPO 2506/2521 3100 -SHRA BKN012CB
BECMG 2512/2514 32006G11MPS
TEMPO 2521/2524 36007G12MPS 3100 -SHRASN BKN010CB



MetMap, La meteo Aeronautica in un colpo d'occhio ! - Copyright ORBIFLY Dicembre 2007 - Disclaimer

ORBIFLY MET'MAP TEAM :

Programmazione e sviluppo : Alexandra Zaïnal
Concezione e sviluppo : Baudouin d'Aumeries
Co-Programmazione e sviluppo : Marc-Olivier Méhu
Supporto tecnico e logistico : Manuel Goepfert
Aiuto per la traduzione : Arnaldo La Scala

Contatto : metmap@orbifly.com




FONTI E CREDITI :

   NOAA